createdAt,value
2023-08-12T00:01:18.800Z,15.08
2023-08-12T00:03:47.448Z,14.94
2023-08-12T00:06:15.978Z,15.01
2023-08-12T00:08:44.045Z,15.03
2023-08-12T00:11:12.485Z,15.10
2023-08-12T00:13:41.079Z,15.04
2023-08-12T00:16:09.340Z,15.24
2023-08-12T00:18:37.958Z,15.17
2023-08-12T00:21:08.864Z,15.24
2023-08-12T00:23:41.013Z,15.20
2023-08-12T00:26:10.395Z,15.19
2023-08-12T00:28:38.630Z,15.11
2023-08-12T00:31:06.712Z,15.15
2023-08-12T00:33:35.429Z,15.03
2023-08-12T00:36:03.679Z,15.11
2023-08-12T00:38:32.408Z,15.11
2023-08-12T00:41:01.420Z,15.02
2023-08-12T00:43:29.858Z,15.03
2023-08-12T00:45:58.586Z,15.11
2023-08-12T00:48:27.185Z,14.96
2023-08-12T00:50:55.294Z,14.90
2023-08-12T00:53:23.910Z,14.75
2023-08-12T00:55:52.762Z,14.80
2023-08-12T00:58:20.922Z,14.89
2023-08-12T01:00:49.112Z,14.87
2023-08-12T01:03:18.109Z,14.87
2023-08-12T01:05:47.824Z,14.76
2023-08-12T01:08:15.887Z,14.85
2023-08-12T01:10:53.703Z,14.81
2023-08-12T01:13:38.372Z,14.63
2023-08-12T01:16:09.430Z,14.59
2023-08-12T01:18:39.629Z,14.59
2023-08-12T01:21:14.037Z,14.72
2023-08-12T01:23:42.674Z,14.68
2023-08-12T01:26:11.297Z,14.69
2023-08-12T01:28:39.509Z,14.54
2023-08-12T01:31:14.856Z,14.46
2023-08-12T01:34:13.854Z,14.41
2023-08-12T01:36:47.764Z,14.23
2023-08-12T01:39:17.985Z,14.28
2023-08-12T01:41:46.981Z,14.31
2023-08-12T01:44:15.624Z,14.27
2023-08-12T01:46:45.816Z,14.28
2023-08-12T01:49:13.982Z,14.27
2023-08-12T01:51:42.435Z,14.30
2023-08-12T01:54:10.645Z,14.25
2023-08-12T01:56:38.907Z,14.25
2023-08-12T01:59:08.269Z,14.26
2023-08-12T02:01:36.653Z,14.12
2023-08-12T02:04:05.410Z,14.19
2023-08-12T02:06:33.505Z,14.19
2023-08-12T02:09:01.726Z,14.11
2023-08-12T02:11:30.179Z,14.09
2023-08-12T02:13:58.379Z,13.97
2023-08-12T02:16:26.628Z,13.95
2023-08-12T02:18:55.046Z,14.04
2023-08-12T02:21:23.312Z,14.02
2023-08-12T02:23:51.582Z,14.11
2023-08-12T02:26:20.287Z,14.24
2023-08-12T02:28:49.603Z,14.25
2023-08-12T02:31:18.324Z,14.31
2023-08-12T02:33:46.804Z,14.30
2023-08-12T02:36:14.951Z,14.04
2023-08-12T02:38:57.603Z,13.91
2023-08-12T02:41:25.770Z,13.93
2023-08-12T02:43:53.794Z,14.00
2023-08-12T02:46:22.836Z,13.87
2023-08-12T02:48:50.895Z,13.76
2023-08-12T02:51:18.931Z,13.88
2023-08-12T02:53:47.615Z,13.98
2023-08-12T02:56:15.726Z,13.81
2023-08-12T02:58:43.876Z,13.66
2023-08-12T03:01:12.566Z,13.85
2023-08-12T03:03:40.980Z,13.91
2023-08-12T03:06:09.207Z,13.80
2023-08-12T03:08:37.844Z,13.67
2023-08-12T03:11:06.367Z,13.58
2023-08-12T03:13:34.592Z,13.78
2023-08-12T03:16:04.015Z,13.88
2023-08-12T03:18:32.709Z,13.81
2023-08-12T03:21:00.937Z,13.78
2023-08-12T03:23:29.550Z,13.83
2023-08-12T03:25:58.651Z,13.81
2023-08-12T03:28:26.714Z,13.68
2023-08-12T03:30:55.649Z,13.80
2023-08-12T03:33:24.217Z,13.83
2023-08-12T03:35:52.868Z,13.91
2023-08-12T03:38:21.318Z,13.70
2023-08-12T03:40:50.818Z,13.74
2023-08-12T03:43:18.981Z,13.82
2023-08-12T03:45:48.585Z,13.74
2023-08-12T03:48:17.049Z,13.68
2023-08-12T03:50:46.716Z,13.59
2023-08-12T03:53:15.390Z,13.57
2023-08-12T03:55:44.189Z,13.72
2023-08-12T03:58:12.917Z,13.76
2023-08-12T04:00:44.716Z,13.65
2023-08-12T04:03:14.410Z,13.74
2023-08-12T04:05:53.812Z,13.89
2023-08-12T04:08:23.741Z,13.91
2023-08-12T04:10:52.514Z,14.02
2023-08-12T04:13:20.825Z,14.10
2023-08-12T04:15:54.451Z,14.17
2023-08-12T04:18:23.287Z,14.27
2023-08-12T04:20:53.213Z,14.15
2023-08-12T04:23:21.599Z,14.27
2023-08-12T04:25:50.752Z,14.33
2023-08-12T04:28:19.703Z,14.36
2023-08-12T04:30:54.085Z,14.29
2023-08-12T04:33:23.712Z,14.16
2023-08-12T04:35:54.236Z,14.19
2023-08-12T04:38:24.085Z,14.15
2023-08-12T04:40:55.203Z,14.23
2023-08-12T04:43:23.812Z,14.34
2023-08-12T04:45:52.179Z,14.40
2023-08-12T04:48:22.214Z,14.33
2023-08-12T04:50:50.668Z,14.24
2023-08-12T04:53:19.003Z,14.31
2023-08-12T04:55:51.912Z,14.26
2023-08-12T04:58:20.556Z,14.38
2023-08-12T05:00:49.354Z,14.42
2023-08-12T05:03:18.926Z,14.41
2023-08-12T05:05:53.732Z,14.14
2023-08-12T05:08:22.179Z,14.01
2023-08-12T05:10:50.929Z,14.09
2023-08-12T05:13:19.309Z,14.27
2023-08-12T05:15:48.914Z,14.32
2023-08-12T05:18:18.219Z,14.42
2023-08-12T05:20:47.443Z,14.44
2023-08-12T05:23:16.094Z,14.44
2023-08-12T05:25:44.803Z,14.52
2023-08-12T05:28:12.971Z,14.67
2023-08-12T05:30:41.300Z,14.72
2023-08-12T05:33:09.889Z,14.79
2023-08-12T05:35:38.123Z,14.88
2023-08-12T05:38:06.237Z,14.99
2023-08-12T05:40:34.642Z,15.05
2023-08-12T05:43:03.622Z,15.18
2023-08-12T05:45:31.885Z,15.30
2023-08-12T05:48:00.293Z,15.37
2023-08-12T05:50:28.540Z,15.43
2023-08-12T05:52:56.982Z,15.52
2023-08-12T05:55:25.362Z,15.62
2023-08-12T05:57:53.490Z,15.74
2023-08-12T06:00:21.698Z,15.84
2023-08-12T06:02:52.673Z,15.92
2023-08-12T06:05:21.385Z,16.01
2023-08-12T06:07:50.025Z,16.12
2023-08-12T06:10:18.148Z,16.23
2023-08-12T06:12:47.356Z,16.30
2023-08-12T06:15:15.982Z,16.38
2023-08-12T06:17:44.207Z,16.47
2023-08-12T06:20:13.018Z,16.57
2023-08-12T06:22:41.547Z,16.69
2023-08-12T06:25:09.911Z,16.78
2023-08-12T06:27:38.286Z,16.94
2023-08-12T06:30:07.501Z,17.01
2023-08-12T06:32:37.016Z,17.13
2023-08-12T06:35:05.921Z,17.26
2023-08-12T06:37:34.480Z,17.40
2023-08-12T06:40:02.673Z,17.55
2023-08-12T06:42:31.350Z,17.65
2023-08-12T06:45:01.080Z,17.86
2023-08-12T06:47:30.927Z,17.87
2023-08-12T06:49:59.701Z,18.01
2023-08-12T06:52:27.846Z,18.03
2023-08-12T06:54:55.963Z,18.06
2023-08-12T06:57:24.500Z,18.12
2023-08-12T06:59:52.897Z,18.16
2023-08-12T07:02:20.928Z,18.27
2023-08-12T07:04:49.460Z,18.31
2023-08-12T07:07:17.612Z,18.46
2023-08-12T07:09:45.677Z,18.75
2023-08-12T07:12:14.303Z,18.88
2023-08-12T07:14:43.339Z,18.93
2023-08-12T07:17:11.486Z,19.00
2023-08-12T07:19:39.858Z,19.32
2023-08-12T07:22:07.959Z,19.39
2023-08-12T07:24:36.374Z,19.77
2023-08-12T07:27:07.762Z,20.06
2023-08-12T07:29:36.096Z,20.08
2023-08-12T07:32:04.965Z,20.67
2023-08-12T07:34:33.250Z,20.72
2023-08-12T07:37:01.429Z,20.92
2023-08-12T07:39:29.866Z,21.16
2023-08-12T07:41:58.024Z,21.61
2023-08-12T07:44:26.341Z,21.77
2023-08-12T07:46:54.908Z,21.92
2023-08-12T07:49:26.232Z,22.07
2023-08-12T07:51:54.603Z,22.20
2023-08-12T07:54:22.706Z,22.52
2023-08-12T07:56:51.340Z,22.51
2023-08-12T07:59:19.823Z,22.78
2023-08-12T08:01:48.409Z,22.88
2023-08-12T08:04:16.867Z,23.65
2023-08-12T08:06:44.887Z,23.87
2023-08-12T08:09:15.928Z,24.02
2023-08-12T08:11:44.310Z,24.47
2023-08-12T08:14:12.450Z,24.76
2023-08-12T08:16:42.916Z,24.86
2023-08-12T08:19:13.398Z,24.48
2023-08-12T08:21:42.618Z,24.56
2023-08-12T08:24:12.547Z,25.09
2023-08-12T08:26:44.002Z,25.12
2023-08-12T08:29:12.171Z,25.50
2023-08-12T08:31:40.860Z,25.48
2023-08-12T08:34:09.210Z,25.22
2023-08-12T08:36:37.480Z,25.96
2023-08-12T08:39:05.907Z,25.82
2023-08-12T08:41:40.644Z,26.04
2023-08-12T08:44:10.025Z,26.08
2023-08-12T08:46:38.406Z,26.34
2023-08-12T08:49:08.048Z,26.46
2023-08-12T08:51:36.700Z,26.88
2023-08-12T08:54:08.041Z,26.68
2023-08-12T08:56:44.747Z,26.77
2023-08-12T08:59:16.624Z,26.82
2023-08-12T09:01:48.412Z,26.80
2023-08-12T09:04:17.767Z,26.82
2023-08-12T09:06:46.812Z,26.91
2023-08-12T09:09:17.860Z,27.02
2023-08-12T09:11:46.785Z,27.22
2023-08-12T09:14:15.327Z,27.28
2023-08-12T09:16:43.534Z,27.60
2023-08-12T09:19:11.995Z,27.81
2023-08-12T09:21:40.247Z,27.69
2023-08-12T09:24:09.561Z,27.67
2023-08-12T09:26:37.949Z,27.84
2023-08-12T09:29:06.141Z,28.20
2023-08-12T09:31:34.622Z,27.72
2023-08-12T09:34:10.003Z,27.62
2023-08-12T09:36:38.347Z,27.63
2023-08-12T09:39:10.185Z,27.49
2023-08-12T09:41:40.220Z,27.68
2023-08-12T09:44:09.980Z,27.93
2023-08-12T09:46:39.740Z,27.74
2023-08-12T09:49:08.453Z,27.88
2023-08-12T09:51:38.184Z,28.11
2023-08-12T09:54:06.399Z,28.18
2023-08-12T09:56:37.859Z,27.94
2023-08-12T09:59:10.750Z,27.96
2023-08-12T10:01:39.822Z,27.96
2023-08-12T10:04:14.296Z,27.93
2023-08-12T10:06:42.675Z,28.33
2023-08-12T10:09:12.268Z,28.21
2023-08-12T10:11:41.043Z,28.40
2023-08-12T10:14:10.440Z,28.42
2023-08-12T10:16:39.537Z,28.14
2023-08-12T10:19:07.758Z,28.27
2023-08-12T10:21:36.154Z,28.44
2023-08-12T10:24:06.302Z,28.02
2023-08-12T10:26:34.671Z,28.28
2023-08-12T10:29:03.778Z,27.93
2023-08-12T10:31:32.343Z,28.09
2023-08-12T10:34:00.808Z,27.78
2023-08-12T10:36:29.188Z,28.08
2023-08-12T10:38:57.937Z,28.13
2023-08-12T10:41:26.429Z,28.30
2023-08-12T10:43:55.895Z,28.29
2023-08-12T10:46:45.754Z,28.14
2023-08-12T10:49:14.113Z,27.53
2023-08-12T10:51:46.883Z,27.39
2023-08-12T10:54:17.291Z,27.79
2023-08-12T10:57:04.316Z,27.82
2023-08-12T10:59:47.749Z,27.56
2023-08-12T11:02:30.548Z,27.49
2023-08-12T11:05:04.017Z,27.68
2023-08-12T11:07:59.634Z,27.77
2023-08-12T11:10:34.033Z,27.86
2023-08-12T11:13:04.852Z,27.73
2023-08-12T11:15:38.132Z,27.72
2023-08-12T11:18:11.462Z,27.49
2023-08-12T11:20:40.198Z,27.22
2023-08-12T11:23:09.907Z,26.92
2023-08-12T11:25:40.609Z,26.83
2023-08-12T11:28:09.656Z,26.62
2023-08-12T11:30:37.984Z,26.72
2023-08-12T11:33:06.556Z,26.64
2023-08-12T11:35:35.815Z,26.57
2023-08-12T11:38:05.994Z,26.32
2023-08-12T11:40:35.782Z,26.15
2023-08-12T11:43:07.147Z,26.09
2023-08-12T11:45:35.799Z,26.20
2023-08-12T11:48:06.047Z,26.08
2023-08-12T11:50:34.675Z,26.28
2023-08-12T11:53:03.265Z,26.27
2023-08-12T11:55:31.689Z,26.27
2023-08-12T11:57:59.869Z,26.24
2023-08-12T12:00:28.571Z,26.36
2023-08-12T12:02:57.786Z,26.39
2023-08-12T12:05:33.155Z,26.14
2023-08-12T12:08:01.815Z,26.06
2023-08-12T12:10:34.812Z,25.94
2023-08-12T12:13:05.639Z,26.08
2023-08-12T12:15:42.236Z,25.97
2023-08-12T12:18:14.416Z,25.88
2023-08-12T12:20:58.358Z,25.79
2023-08-12T12:23:30.559Z,25.75
2023-08-12T12:26:03.240Z,25.79
2023-08-12T12:28:32.163Z,25.73
2023-08-12T12:31:00.619Z,25.73
2023-08-12T12:33:28.798Z,25.82
2023-08-12T12:36:00.371Z,25.87
2023-08-12T12:38:30.117Z,26.15
2023-08-12T12:40:58.769Z,26.10
2023-08-12T12:43:26.928Z,26.10
2023-08-12T12:45:55.179Z,25.99
2023-08-12T12:48:23.854Z,26.00
2023-08-12T12:50:52.032Z,25.98
2023-08-12T12:53:20.222Z,26.07
2023-08-12T12:55:49.206Z,26.08
2023-08-12T12:58:17.637Z,26.05
2023-08-12T13:00:45.765Z,26.05
2023-08-12T13:03:14.351Z,26.02
2023-08-12T13:05:42.426Z,25.97
2023-08-12T13:08:10.509Z,25.95
2023-08-12T13:10:39.141Z,25.85
2023-08-12T13:13:07.236Z,26.00
2023-08-12T13:15:35.921Z,26.01
2023-08-12T13:18:04.673Z,26.01
2023-08-12T13:20:32.746Z,25.88
2023-08-12T13:23:01.020Z,25.81
2023-08-12T13:25:34.647Z,25.77
2023-08-12T13:28:04.654Z,25.81
2023-08-12T13:30:33.123Z,25.72
2023-08-12T13:33:02.145Z,25.78
2023-08-12T13:35:30.493Z,25.74
2023-08-12T13:37:58.987Z,25.67
2023-08-12T13:40:27.564Z,25.70
2023-08-12T13:42:55.744Z,25.60
2023-08-12T13:45:26.340Z,25.57
2023-08-12T13:47:54.638Z,25.57
2023-08-12T13:50:23.018Z,25.60
2023-08-12T13:52:51.688Z,25.74
2023-08-12T13:55:20.140Z,25.77
2023-08-12T13:57:48.212Z,25.78
2023-08-12T14:00:16.942Z,25.76
2023-08-12T14:02:45.678Z,25.71
2023-08-12T14:05:14.060Z,25.74
2023-08-12T14:07:42.460Z,25.72
2023-08-12T14:10:11.059Z,25.69
2023-08-12T14:12:39.535Z,25.72
2023-08-12T14:15:08.193Z,25.64
2023-08-12T14:17:36.708Z,25.51
2023-08-12T14:20:08.902Z,25.54
2023-08-12T14:22:37.592Z,25.60
2023-08-12T14:25:06.608Z,25.57
2023-08-12T14:27:34.881Z,25.68
2023-08-12T14:30:04.332Z,25.59
2023-08-12T14:32:32.846Z,25.54
2023-08-12T14:35:00.972Z,25.64
2023-08-12T14:37:29.580Z,25.70
2023-08-12T14:39:58.075Z,25.77
2023-08-12T14:42:26.357Z,25.75
2023-08-12T14:44:55.013Z,25.67
2023-08-12T14:47:23.207Z,25.70
2023-08-12T14:49:53.378Z,25.66
2023-08-12T14:52:21.959Z,25.65
2023-08-12T14:54:50.364Z,25.67
2023-08-12T14:57:18.473Z,25.67
2023-08-12T14:59:51.681Z,25.71
2023-08-12T15:02:23.894Z,25.67
2023-08-12T15:04:52.605Z,25.67
2023-08-12T15:07:22.366Z,25.63
2023-08-12T15:09:52.412Z,25.57
2023-08-12T15:12:21.514Z,25.52
2023-08-12T15:14:49.783Z,25.52
2023-08-12T15:17:17.909Z,25.51
2023-08-12T15:19:46.403Z,25.52
2023-08-12T15:22:15.469Z,25.44
2023-08-12T15:24:43.500Z,25.44
2023-08-12T15:27:12.160Z,25.42
2023-08-12T15:29:40.897Z,25.40
2023-08-12T15:32:08.926Z,25.38
2023-08-12T15:34:37.269Z,25.35
2023-08-12T15:37:05.582Z,25.30
2023-08-12T15:39:34.795Z,25.28
2023-08-12T15:42:03.558Z,25.27
2023-08-12T15:44:31.907Z,25.21
2023-08-12T15:47:00.052Z,25.20
2023-08-12T15:49:33.330Z,25.26
2023-08-12T15:52:02.544Z,25.19
2023-08-12T15:54:30.954Z,25.17
2023-08-12T15:56:59.023Z,25.12
2023-08-12T15:59:27.198Z,25.11
2023-08-12T16:01:55.662Z,25.03
2023-08-12T16:04:24.190Z,24.99
2023-08-12T16:06:52.624Z,24.95
2023-08-12T16:09:23.611Z,24.89
2023-08-12T16:11:52.622Z,24.84
2023-08-12T16:14:20.777Z,24.79
2023-08-12T16:16:48.985Z,24.72
2023-08-12T16:19:17.409Z,24.65
2023-08-12T16:21:45.603Z,24.59
2023-08-12T16:24:13.742Z,24.56
2023-08-12T16:26:42.126Z,24.54
2023-08-12T16:29:10.290Z,24.47
2023-08-12T16:31:40.402Z,24.44
2023-08-12T16:34:09.365Z,24.40
2023-08-12T16:36:37.896Z,24.33
2023-08-12T16:39:07.739Z,24.28
2023-08-12T16:41:36.433Z,24.23
2023-08-12T16:44:05.334Z,24.19
2023-08-12T16:46:33.513Z,24.14
2023-08-12T16:49:01.946Z,24.08
2023-08-12T16:51:29.963Z,24.05
2023-08-12T16:53:58.104Z,23.97
2023-08-12T16:56:26.719Z,23.94
2023-08-12T16:58:54.914Z,23.89
2023-08-12T17:01:26.062Z,23.82
2023-08-12T17:03:54.577Z,23.72
2023-08-12T17:06:23.340Z,23.64
2023-08-12T17:08:51.567Z,23.57
2023-08-12T17:11:20.887Z,23.50
2023-08-12T17:13:49.100Z,23.42
2023-08-12T17:16:17.220Z,23.35
2023-08-12T17:18:45.676Z,23.29
2023-08-12T17:21:13.927Z,23.21
2023-08-12T17:23:42.166Z,23.13
2023-08-12T17:26:10.577Z,23.04
2023-08-12T17:28:38.822Z,22.98
2023-08-12T17:31:07.328Z,22.89
2023-08-12T17:33:35.882Z,22.79
2023-08-12T17:36:04.483Z,22.73
2023-08-12T17:38:32.603Z,22.63
2023-08-12T17:41:03.525Z,22.58
2023-08-12T17:43:31.723Z,22.54
2023-08-12T17:46:00.055Z,22.50
2023-08-12T17:48:28.936Z,22.45
2023-08-12T17:50:57.190Z,22.39
2023-08-12T17:53:25.324Z,22.35
2023-08-12T17:55:53.752Z,22.30
2023-08-12T17:58:21.946Z,22.22
2023-08-12T18:00:50.085Z,22.14
2023-08-12T18:03:18.756Z,22.04
2023-08-12T18:05:47.493Z,21.93
2023-08-12T18:08:15.612Z,21.84
2023-08-12T18:10:44.165Z,21.75
2023-08-12T18:13:12.637Z,21.74
2023-08-12T18:15:40.729Z,21.67
2023-08-12T18:18:09.313Z,21.61
2023-08-12T18:20:37.734Z,21.57
2023-08-12T18:23:06.051Z,21.50
2023-08-12T18:25:34.488Z,21.45
2023-08-12T18:28:02.707Z,21.31
2023-08-12T18:30:31.948Z,21.36
2023-08-12T18:33:04.205Z,21.19
2023-08-12T18:35:33.386Z,21.14
2023-08-12T18:38:02.289Z,20.99
2023-08-12T18:40:33.361Z,21.06
2023-08-12T18:43:02.167Z,21.01
2023-08-12T18:45:30.368Z,20.95
2023-08-12T18:47:58.690Z,20.90
2023-08-12T18:50:27.552Z,20.82
2023-08-12T18:52:56.056Z,20.82
2023-08-12T18:55:24.420Z,20.59
2023-08-12T18:57:53.076Z,20.57
2023-08-12T19:00:21.983Z,20.51
2023-08-12T19:02:51.211Z,20.56
2023-08-12T19:05:19.996Z,20.50
2023-08-12T19:07:48.131Z,20.53
2023-08-12T19:10:16.372Z,20.48
2023-08-12T19:12:45.024Z,20.35
2023-08-12T19:15:13.092Z,20.29
2023-08-12T19:17:41.193Z,20.15
2023-08-12T19:20:11.095Z,20.14
2023-08-12T19:22:39.367Z,20.01
2023-08-12T19:25:07.905Z,20.11
2023-08-12T19:27:36.502Z,20.03
2023-08-12T19:30:05.219Z,20.09
2023-08-12T19:32:55.678Z,20.05
2023-08-12T19:35:24.272Z,19.92
2023-08-12T19:37:56.284Z,19.77
2023-08-12T19:40:24.923Z,19.68
2023-08-12T19:42:53.743Z,19.57
2023-08-12T19:45:21.958Z,19.66
2023-08-12T19:47:50.413Z,19.51
2023-08-12T19:50:18.486Z,19.43
2023-08-12T19:52:46.617Z,19.38
2023-08-12T19:55:15.232Z,19.48
2023-08-12T19:57:43.526Z,19.46
2023-08-12T20:00:12.237Z,19.51
2023-08-12T20:02:42.701Z,19.45
2023-08-12T20:05:19.116Z,19.27
2023-08-12T20:07:49.361Z,19.40
2023-08-12T20:10:20.047Z,19.35
2023-08-12T20:12:48.494Z,19.33
2023-08-12T20:15:17.353Z,19.38
2023-08-12T20:17:45.819Z,19.24
2023-08-12T20:20:18.536Z,19.15
2023-08-12T20:23:03.198Z,19.15
2023-08-12T20:25:37.161Z,19.09
2023-08-12T20:28:08.652Z,19.00
2023-08-12T20:30:37.659Z,18.85
2023-08-12T20:33:06.537Z,18.89
2023-08-12T20:35:34.839Z,18.89
2023-08-12T20:38:03.187Z,18.94
2023-08-12T20:40:31.569Z,18.89
2023-08-12T20:42:59.866Z,18.80
2023-08-12T20:45:28.034Z,18.73
2023-08-12T20:47:56.418Z,18.66
2023-08-12T20:50:24.799Z,18.65
2023-08-12T20:52:53.101Z,18.59
2023-08-12T20:55:21.499Z,18.62
2023-08-12T20:57:49.769Z,18.63
2023-08-12T21:00:18.436Z,18.66
2023-08-12T21:02:46.932Z,18.66
2023-08-12T21:05:15.482Z,18.71
2023-08-12T21:07:43.848Z,18.66
2023-08-12T21:10:13.200Z,18.66
2023-08-12T21:12:41.449Z,18.64
2023-08-12T21:15:10.976Z,18.56
2023-08-12T21:17:39.502Z,18.58
2023-08-12T21:20:08.413Z,18.51
2023-08-12T21:22:36.609Z,18.48
2023-08-12T21:25:05.618Z,18.46
2023-08-12T21:27:34.769Z,18.54
2023-08-12T21:30:03.257Z,18.53
2023-08-12T21:32:32.701Z,18.47
2023-08-12T21:35:01.532Z,18.47
2023-08-12T21:37:30.428Z,18.47
2023-08-12T21:39:58.880Z,18.44
2023-08-12T21:42:26.989Z,18.40
2023-08-12T21:44:55.329Z,18.37
2023-08-12T21:47:23.750Z,18.36
2023-08-12T21:49:51.814Z,18.37
2023-08-12T21:52:19.972Z,18.32
2023-08-12T21:54:48.705Z,18.30
2023-08-12T21:57:16.997Z,18.20
2023-08-12T21:59:45.608Z,18.17
2023-08-12T22:02:23.616Z,18.08
2023-08-12T22:04:52.358Z,18.01
2023-08-12T22:07:21.072Z,18.01
2023-08-12T22:09:49.044Z,18.05
2023-08-12T22:12:17.316Z,18.05
2023-08-12T22:14:45.533Z,18.02
2023-08-12T22:17:13.777Z,18.02
2023-08-12T22:19:42.251Z,18.03
2023-08-12T22:22:19.177Z,18.06
2023-08-12T22:24:49.032Z,18.02
2023-08-12T22:27:17.233Z,17.95
2023-08-12T22:29:45.362Z,17.95
2023-08-12T22:32:14.267Z,17.93
2023-08-12T22:34:42.579Z,17.86
2023-08-12T22:37:11.121Z,17.79
2023-08-12T22:39:39.812Z,17.89
2023-08-12T22:42:08.033Z,17.79
2023-08-12T22:44:36.139Z,17.68
2023-08-12T22:47:04.929Z,17.68
2023-08-12T22:49:33.053Z,17.71
2023-08-12T22:52:01.120Z,17.71
2023-08-12T22:54:29.590Z,17.73
2023-08-12T22:56:57.913Z,17.73
2023-08-12T22:59:26.202Z,17.69
2023-08-12T23:01:54.669Z,17.69
2023-08-12T23:04:22.820Z,17.71
2023-08-12T23:06:50.932Z,17.66
2023-08-12T23:09:19.816Z,17.64
2023-08-12T23:11:47.956Z,17.64
2023-08-12T23:14:15.990Z,17.66
2023-08-12T23:16:44.530Z,17.64
2023-08-12T23:19:12.870Z,17.61
2023-08-12T23:21:40.940Z,17.45
2023-08-12T23:24:09.458Z,17.40
2023-08-12T23:26:38.258Z,17.50
2023-08-12T23:29:07.058Z,17.52
2023-08-12T23:31:35.515Z,17.52
2023-08-12T23:34:03.715Z,17.51
2023-08-12T23:36:34.615Z,17.48
2023-08-12T23:39:04.690Z,17.49
2023-08-12T23:41:33.113Z,17.48
2023-08-12T23:44:01.536Z,17.48
2023-08-12T23:46:30.049Z,17.51
2023-08-12T23:48:58.050Z,17.46
2023-08-12T23:51:26.129Z,17.36
2023-08-12T23:53:54.852Z,17.27
2023-08-12T23:56:22.924Z,17.41
2023-08-12T23:58:51.035Z,17.36
